Time;durP1;ratioP1;P1;durP2;ratioP2;P2;SDS_P1;SDS_P2;PMS_P1;PMS_P2;Temp;Humidity;BMP_temperature;BMP_pressure;BME280_temperature;BME280_humidity;BME280_pressure;Samples;Min_cycle;Max_cycle;Signal;HPM_P1;HPM_P2
2022/11/19 00:02:12;;;;;;;3.70;1.92;;;;;;;5.07;100.00;94946.00;5113071;27;24435;-73
2022/11/19 00:04:39;;;;;;;2.13;1.90;;;;;;;5.09;100.00;94941.63;5110309;27;24421;-73
2022/11/19 00:07:05;;;;;;;3.33;2.00;;;;;;;5.06;100.00;94939.22;5111133;27;24483;-73
2022/11/19 00:09:32;;;;;;;2.60;1.92;;;;;;;5.07;100.00;94937.47;5118952;27;24432;-72
2022/11/19 00:14:44;;;;;;;4.20;2.10;;;;;;;5.07;100.00;94932.34;5119418;27;24425;-73
2022/11/19 00:17:10;;;;;;;3.92;1.92;;;;;;;5.03;100.00;94933.41;5122794;27;24997;-73
2022/11/19 00:19:37;;;;;;;3.53;2.00;;;;;;;4.99;100.00;94935.31;5115190;27;24440;-72
2022/11/19 00:22:03;;;;;;;4.32;2.30;;;;;;;4.94;100.00;94928.78;5110248;27;24997;-73
2022/11/19 00:24:30;;;;;;;3.15;2.30;;;;;;;5.03;100.00;94939.38;5116103;27;24437;-73
2022/11/19 00:26:57;;;;;;;3.97;2.35;;;;;;;5.05;100.00;94932.44;5117162;27;25010;-72
2022/11/19 00:29:24;;;;;;;2.65;1.83;;;;;;;5.04;100.00;94935.91;5125352;27;24437;-73
2022/11/19 00:31:51;;;;;;;3.60;2.30;;;;;;;5.10;100.00;94939.88;5113064;27;24544;-72
2022/11/19 00:34:17;;;;;;;2.83;2.42;;;;;;;4.98;100.00;94937.97;5125360;27;24472;-72
2022/11/19 00:36:44;;;;;;;3.00;1.80;;;;;;;4.89;100.00;94931.59;5118964;27;24438;-72
2022/11/19 00:39:10;;;;;;;2.33;1.70;;;;;;;4.95;100.00;94930.44;5113540;27;24436;-73
2022/11/19 00:41:37;;;;;;;6.00;1.95;;;;;;;4.99;100.00;94932.75;5119011;27;25776;-72
2022/11/19 00:44:03;;;;;;;2.88;1.70;;;;;;;4.78;100.00;94933.91;5120739;27;24440;-72
2022/11/19 00:46:31;;;;;;;2.50;1.50;;;;;;;4.81;100.00;94919.16;5105742;27;24445;-72
2022/11/19 00:48:59;;;;;;;2.00;1.50;;;;;;;4.83;100.00;94919.94;5118796;27;25001;-72
2022/11/19 00:51:28;;;;;;;1.65;1.30;;;;;;;4.92;100.00;94920.34;5117562;27;24815;-72
2022/11/19 00:53:54;;;;;;;1.63;1.30;;;;;;;4.73;100.00;94908.50;5115919;27;25078;-72
2022/11/19 00:56:23;;;;;;;1.70;1.20;;;;;;;4.71;100.00;94917.19;5116903;27;24491;-72
2022/11/19 00:58:50;;;;;;;2.10;1.10;;;;;;;4.64;100.00;94921.00;5108720;27;24826;-72
2022/11/19 01:01:19;;;;;;;2.50;1.30;;;;;;;4.72;100.00;94918.84;5121793;27;25061;-73
2022/11/19 01:03:47;;;;;;;1.30;1.13;;;;;;;4.75;100.00;94921.25;5100773;27;24448;-73
2022/11/19 01:06:16;;;;;;;1.88;1.17;;;;;;;4.76;100.00;94920.34;5117528;27;24537;-73
2022/11/19 01:08:43;;;;;;;2.95;1.35;;;;;;;4.78;100.00;94924.50;5109863;27;24437;-72
2022/11/19 01:11:13;;;;;;;2.63;1.27;;;;;;;4.89;100.00;94923.88;5119331;27;24437;-72
2022/11/19 01:13:40;;;;;;;1.55;1.27;;;;;;;4.92;100.00;94923.72;5110510;27;24436;-72
2022/11/19 01:16:09;;;;;;;1.52;1.00;;;;;;;4.94;100.00;94931.38;5120393;27;24429;-72
2022/11/19 01:18:37;;;;;;;1.40;1.10;;;;;;;5.00;100.00;94926.69;5114206;27;24436;-72
2022/11/19 01:21:07;;;;;;;2.08;1.15;;;;;;;4.96;100.00;94927.78;5117240;27;24440;-72
2022/11/19 01:23:34;;;;;;;2.40;1.20;;;;;;;4.92;100.00;94928.03;5112051;27;24430;-72
2022/11/19 01:26:01;;;;;;;1.42;0.98;;;;;;;4.81;100.00;94928.59;5116891;27;24449;-72
2022/11/19 01:28:29;;;;;;;1.48;1.10;;;;;;;4.81;100.00;94923.47;5109018;28;24430;-72
2022/11/19 01:30:55;;;;;;;1.80;0.90;;;;;;;4.83;100.00;94930.19;5109107;27;24437;-72
2022/11/19 01:33:22;;;;;;;2.50;1.13;;;;;;;4.84;100.00;94921.56;5116472;27;24442;-73
2022/11/19 01:35:56;;;;;;;1.75;1.23;;;;;;;4.77;100.00;94920.25;5120033;27;24482;-72
2022/11/19 01:38:24;;;;;;;1.60;1.10;;;;;;;4.76;100.00;94923.75;5117986;27;24809;-72
2022/11/19 01:40:51;;;;;;;1.77;1.10;;;;;;;4.78;100.00;94923.63;5107640;27;24430;-73
2022/11/19 01:43:18;;;;;;;1.92;1.08;;;;;;;4.88;100.00;94934.25;5110371;27;24430;-73
2022/11/19 01:45:47;;;;;;;1.10;1.00;;;;;;;4.82;100.00;94931.13;5120829;27;24456;-72
2022/11/19 01:48:21;;;;;;;0.90;0.70;;;;;;;4.83;100.00;94931.94;5111926;27;24521;-72
2022/11/19 01:50:50;;;;;;;1.40;0.80;;;;;;;4.82;100.00;94940.53;5112077;27;24878;-72
2022/11/19 01:53:19;;;;;;;1.00;0.70;;;;;;;4.75;100.00;94934.91;5104760;27;24429;-73
2022/11/19 01:55:48;;;;;;;1.90;1.08;;;;;;;4.77;100.00;94943.34;5115568;27;24422;-73
2022/11/19 01:58:19;;;;;;;1.45;1.10;;;;;;;4.71;100.00;94941.13;5114006;27;24429;-73
2022/11/19 02:00:46;;;;;;;1.73;0.93;;;;;;;4.68;100.00;94937.88;5110951;27;24433;-72
2022/11/19 02:03:13;;;;;;;3.10;0.90;;;;;;;4.70;100.00;94946.31;5107857;27;24789;-73
2022/11/19 02:05:42;;;;;;;1.23;0.80;;;;;;;4.69;100.00;94940.34;5117417;27;24445;-73
2022/11/19 02:08:30;;;;;;;3.50;1.02;;;;;;;4.71;100.00;94942.84;5118339;27;24436;-72
2022/11/19 02:11:12;;;;;;;3.27;1.17;;;;;;;4.79;100.00;94941.53;5110768;28;24808;-72
2022/11/19 02:13:44;;;;;;;1.90;1.10;;;;;;;4.79;100.00;94941.53;5105420;28;24438;-71
2022/11/19 02:16:19;;;;;;;1.42;0.98;;;;;;;4.72;100.00;94937.63;5120996;28;24424;-71
2022/11/19 02:18:52;;;;;;;1.75;1.02;;;;;;;4.74;100.00;94937.53;5113433;28;24440;-71
2022/11/19 02:21:31;;;;;;;1.48;0.93;;;;;;;4.80;100.00;94932.09;5112619;28;24438;-72
2022/11/19 02:24:36;;;;;;;1.38;0.82;;;;;;;4.77;100.00;94930.50;5115729;28;24440;-71
2022/11/19 02:27:28;;;;;;;1.27;0.90;;;;;;;4.81;100.00;94938.88;5111391;28;24456;-71
2022/11/19 02:30:07;;;;;;;1.70;0.65;;;;;;;4.76;100.00;94925.47;5111734;28;24441;-71
2022/11/19 02:32:36;;;;;;;1.42;0.90;;;;;;;4.76;100.00;94933.16;5099350;27;25001;-71
2022/11/19 02:35:13;;;;;;;2.20;0.85;;;;;;;4.73;100.00;94935.91;5115019;27;24437;-72
2022/11/19 02:37:45;;;;;;;7.40;1.00;;;;;;;4.74;100.00;94943.50;5117644;27;24429;-73
2022/11/19 02:40:17;;;;;;;0.85;0.80;;;;;;;4.70;100.00;94936.06;5119679;27;24437;-73
2022/11/19 02:42:53;;;;;;;2.17;0.80;;;;;;;4.67;100.00;94942.16;5123768;27;24440;-73
2022/11/19 02:45:24;;;;;;;1.45;0.82;;;;;;;4.61;100.00;94940.75;5118885;27;24799;-73
2022/11/19 02:47:54;;;;;;;1.20;0.80;;;;;;;4.64;100.00;94944.91;5129665;27;24448;-73
2022/11/19 02:50:26;;;;;;;1.60;0.60;;;;;;;4.66;100.00;94942.25;5116417;27;25132;-72
2022/11/19 02:52:52;;;;;;;1.23;0.83;;;;;;;4.75;100.00;94940.03;5123817;27;25316;-73
2022/11/19 02:55:20;;;;;;;0.60;0.57;;;;;;;4.79;100.00;94936.41;5116487;27;24828;-72
2022/11/19 02:57:51;;;;;;;0.90;0.60;;;;;;;4.80;100.00;94938.06;5127601;27;24798;-72
2022/11/19 03:05:58;;;;;;;1.63;0.82;;;;;;;4.85;100.00;94943.75;5111119;27;24613;-72
2022/11/19 03:08:24;;;;;;;1.88;0.63;;;;;;;4.82;100.00;94936.25;5128253;27;24441;-72
2022/11/19 03:11:02;;;;;;;0.75;0.55;;;;;;;4.72;100.00;94940.19;5119053;27;25021;-72
2022/11/19 03:16:42;;;;;;;2.20;0.80;;;;;;;4.66;100.00;94947.38;5121877;27;25022;-72
2022/11/19 03:19:20;;;;;;;0.90;0.60;;;;;;;4.74;100.00;94948.63;5115905;27;24430;-73
2022/11/19 03:21:54;;;;;;;1.10;0.73;;;;;;;4.71;100.00;94945.41;5118342;27;24432;-72
2022/11/19 03:24:26;;;;;;;1.17;0.60;;;;;;;4.67;100.00;94951.59;5107893;27;24429;-72
2022/11/19 03:26:58;;;;;;;1.70;0.73;;;;;;;4.59;100.00;94952.00;5116999;27;25002;-72
2022/11/19 03:29:27;;;;;;;1.40;0.70;;;;;;;4.65;100.00;94946.56;5114865;27;24444;-72
2022/11/19 03:32:01;;;;;;;1.25;0.68;;;;;;;4.61;100.00;94950.19;5099407;28;24828;-72
2022/11/19 03:34:31;;;;;;;1.90;0.80;;;;;;;4.66;100.00;94949.94;5122911;27;25024;-72
2022/11/19 03:37:00;;;;;;;1.93;0.63;;;;;;;4.66;100.00;94949.94;5116270;27;24429;-72
2022/11/19 03:39:27;;;;;;;1.07;0.67;;;;;;;4.72;100.00;94950.47;5113074;27;24986;-72
2022/11/19 03:41:56;;;;;;;0.80;0.60;;;;;;;4.68;100.00;94959.22;5119853;27;24437;-72
2022/11/19 03:44:28;;;;;;;1.65;0.70;;;;;;;4.66;100.00;94965.34;5113380;27;24795;-72
2022/11/19 03:46:59;;;;;;;2.00;0.52;;;;;;;4.72;100.00;94959.91;5115447;27;24452;-72
2022/11/19 03:49:31;;;;;;;2.30;0.60;;;;;;;4.79;100.00;94959.50;5109629;27;24437;-72
2022/11/19 03:52:04;;;;;;;1.95;0.60;;;;;;;4.84;100.00;94964.38;5112808;27;25037;-72
2022/11/19 03:54:31;;;;;;;1.13;0.52;;;;;;;4.89;100.00;94967.50;5107311;27;24434;-72
2022/11/19 03:56:59;;;;;;;0.52;0.50;;;;;;;4.83;100.00;94966.13;5110773;27;24442;-72
2022/11/19 03:59:26;;;;;;;1.37;0.57;;;;;;;4.85;100.00;94973.72;5116976;27;24495;-72
2022/11/19 04:01:57;;;;;;;0.97;0.50;;;;;;;4.94;100.00;94969.84;5112378;27;25102;-72
2022/11/19 04:04:36;;;;;;;0.90;0.60;;;;;;;4.86;100.00;94965.13;5112164;27;24834;-72
2022/11/19 04:07:04;;;;;;;1.15;0.70;;;;;;;4.87;100.00;94971.09;5111954;27;24838;-71
2022/11/19 04:09:31;;;;;;;7.75;2.90;;;;;;;4.92;100.00;94969.09;5119449;27;24433;-72
2022/11/19 04:11:57;;;;;;;4.72;2.22;;;;;;;4.90;100.00;94960.66;5117524;27;24814;-72
2022/11/19 04:14:24;;;;;;;3.67;1.40;;;;;;;4.97;100.00;94965.38;5105437;27;24441;-71
2022/11/19 04:16:51;;;;;;;2.10;0.90;;;;;;;5.03;100.00;94964.22;5122732;27;24974;-71
2022/11/19 04:19:17;;;;;;;5.63;0.67;;;;;;;5.08;100.00;94964.81;5119736;27;25080;-70
2022/11/19 04:21:44;;;;;;;2.25;0.63;;;;;;;4.99;100.00;94968.69;5109858;27;24537;-73
2022/11/19 04:24:12;;;;;;;2.50;0.77;;;;;;;4.99;100.00;94968.69;5112796;27;24429;-73
2022/11/19 04:26:38;;;;;;;0.98;0.50;;;;;;;5.07;100.00;94963.13;5115414;27;24471;-71
2022/11/19 04:29:05;;;;;;;1.10;0.60;;;;;;;5.06;100.00;94959.75;5116115;27;24765;-71
2022/11/19 04:31:32;;;;;;;1.20;0.60;;;;;;;5.08;100.00;94957.94;5114898;27;24498;-72
2022/11/19 04:33:58;;;;;;;1.10;0.55;;;;;;;5.06;100.00;94967.44;5112854;27;24433;-71
2022/11/19 04:36:25;;;;;;;1.30;0.60;;;;;;;5.01;100.00;94968.63;5122199;27;24426;-73
2022/11/19 04:38:51;;;;;;;0.75;0.50;;;;;;;4.97;100.00;94967.94;5116804;27;24974;-72
2022/11/19 04:41:19;;;;;;;0.88;0.40;;;;;;;5.03;100.00;94972.72;5120432;27;24453;-72
2022/11/19 04:43:46;;;;;;;1.33;0.57;;;;;;;4.97;100.00;94985.91;5114479;27;24437;-72
2022/11/19 04:46:12;;;;;;;1.38;0.68;;;;;;;4.91;100.00;94982.84;5118152;27;24457;-72
2022/11/19 04:48:39;;;;;;;1.00;0.52;;;;;;;4.97;100.00;94985.06;5123037;27;24432;-72
2022/11/19 04:51:05;;;;;;;1.50;0.68;;;;;;;4.94;100.00;94978.38;5113872;27;24433;-72
2022/11/19 04:53:32;;;;;;;1.23;0.63;;;;;;;4.93;100.00;94976.72;5113686;27;24435;-71
2022/11/19 04:55:58;;;;;;;0.60;0.50;;;;;;;5.03;100.00;94979.59;5119139;27;24429;-72
2022/11/19 04:58:26;;;;;;;0.55;0.47;;;;;;;4.93;100.00;94978.44;5115383;27;24433;-73
2022/11/19 05:00:53;;;;;;;0.90;0.50;;;;;;;4.95;100.00;94980.03;5121407;27;24445;-72
2022/11/19 05:03:19;;;;;;;1.05;0.50;;;;;;;5.02;100.00;94971.09;5117836;27;24453;-73
2022/11/19 05:05:46;;;;;;;1.02;0.73;;;;;;;4.95;100.00;94982.59;5121836;27;24433;-73
2022/11/19 05:08:12;;;;;;;2.40;0.80;;;;;;;4.91;100.00;94978.53;5102381;27;24450;-73
2022/11/19 05:10:39;;;;;;;0.47;0.45;;;;;;;4.94;100.00;94972.41;5119112;27;24460;-71
2022/11/19 05:13:05;;;;;;;0.80;0.50;;;;;;;4.85;100.00;94977.09;5115512;27;24438;-73
2022/11/19 05:15:33;;;;;;;0.70;0.55;;;;;;;4.85;100.00;94983.97;5126423;27;24436;-73
2022/11/19 05:18:00;;;;;;;1.60;0.47;;;;;;;4.94;100.00;94975.81;5116435;27;24439;-73
2022/11/19 05:20:26;;;;;;;2.33;0.70;;;;;;;4.96;100.00;94979.09;5117508;27;24445;-73
2022/11/19 05:22:53;;;;;;;0.90;0.57;;;;;;;4.94;100.00;94975.81;5112057;27;24445;-73
2022/11/19 05:25:20;;;;;;;1.58;0.70;;;;;;;4.90;100.00;94982.00;5106297;27;24987;-73
2022/11/19 05:27:46;;;;;;;1.13;0.57;;;;;;;4.86;100.00;94975.41;5112299;27;24446;-72
2022/11/19 05:30:13;;;;;;;1.23;0.75;;;;;;;4.87;100.00;94982.16;5123205;27;24443;-72
2022/11/19 05:32:41;;;;;;;0.98;0.77;;;;;;;4.93;100.00;94978.44;5115797;27;25002;-72
2022/11/19 05:35:08;;;;;;;1.10;0.80;;;;;;;4.98;100.00;94981.59;5121600;27;24444;-72
2022/11/19 05:37:35;;;;;;;1.70;0.80;;;;;;;4.95;100.00;94977.47;5114693;27;25006;-73
2022/11/19 05:40:01;;;;;;;1.25;0.60;;;;;;;4.94;100.00;94975.81;5115997;27;24444;-72
2022/11/19 05:42:28;;;;;;;0.60;0.60;;;;;;;4.97;100.00;94982.50;5107599;27;24994;-73
2022/11/19 05:44:54;;;;;;;1.00;0.73;;;;;;;4.95;100.00;94980.03;5120478;27;24429;-73
2022/11/19 05:47:21;;;;;;;1.02;0.60;;;;;;;5.00;100.00;94979.78;5106811;27;25014;-73
2022/11/19 05:49:49;;;;;;;1.00;0.60;;;;;;;5.05;100.00;94983.75;5104113;27;24438;-73
2022/11/19 05:52:15;;;;;;;0.75;0.70;;;;;;;4.99;100.00;94989.22;5103545;27;24449;-71
2022/11/19 05:54:42;;;;;;;1.02;0.80;;;;;;;5.05;100.00;94988.91;5115658;27;24426;-71
2022/11/19 05:57:08;;;;;;;1.60;0.80;;;;;;;5.06;100.00;94989.72;5094766;27;24438;-71
2022/11/19 05:59:36;;;;;;;1.38;0.90;;;;;;;5.07;100.00;94994.75;5096994;28;24430;-72
2022/11/19 06:02:02;;;;;;;0.80;0.80;;;;;;;5.14;100.00;94994.44;5103600;27;24522;-71
2022/11/19 06:04:29;;;;;;;1.40;0.80;;;;;;;5.16;100.00;94995.19;5113467;27;24892;-72
2022/11/19 06:06:57;;;;;;;1.67;0.75;;;;;;;5.10;100.00;94993.78;5108060;28;24457;-72
2022/11/19 06:09:23;;;;;;;0.90;0.70;;;;;;;5.12;100.00;94993.69;5113988;27;24437;-72
2022/11/19 06:11:50;;;;;;;1.10;0.70;;;;;;;5.08;100.00;94998.19;5114979;28;24433;-72
2022/11/19 06:14:17;;;;;;;0.90;0.80;;;;;;;5.04;100.00;94996.66;5112622;28;24445;-71
2022/11/19 06:16:44;;;;;;;1.45;0.80;;;;;;;5.06;100.00;94995.69;5103710;28;25567;-71
2022/11/19 06:19:11;;;;;;;0.93;0.70;;;;;;;5.07;100.00;94997.31;5110765;28;24462;-72
2022/11/19 06:21:37;;;;;;;1.45;0.73;;;;;;;5.04;100.00;94994.94;5115509;28;24448;-72
2022/11/19 06:24:05;;;;;;;1.15;0.80;;;;;;;5.03;100.00;94989.88;5111806;28;24433;-72
2022/11/19 06:26:32;;;;;;;2.10;0.65;;;;;;;5.07;100.00;95002.44;5091006;28;24440;-71
2022/11/19 06:28:58;;;;;;;1.92;0.93;;;;;;;5.12;100.00;94991.09;5117542;28;24430;-71
2022/11/19 06:31:25;;;;;;;2.13;0.90;;;;;;;5.04;100.00;95005.22;5104375;28;24456;-72
2022/11/19 06:33:53;;;;;;;1.08;0.80;;;;;;;5.00;100.00;95011.38;5102445;28;24441;-71
2022/11/19 06:36:19;;;;;;;1.10;0.90;;;;;;;5.02;100.00;95014.72;5114570;28;24470;-72
2022/11/19 06:38:46;;;;;;;1.60;0.95;;;;;;;4.98;100.00;95014.97;5107859;28;24453;-71
2022/11/19 06:41:14;;;;;;;2.15;1.10;;;;;;;5.01;100.00;95017.38;5115626;28;24448;-71
2022/11/19 06:43:41;;;;;;;1.63;1.20;;;;;;;5.07;100.00;95015.28;5108791;28;24434;-71
2022/11/19 06:46:08;;;;;;;2.45;1.30;;;;;;;5.09;100.00;95028.06;5119812;28;24798;-71
2022/11/19 06:48:35;;;;;;;1.35;1.20;;;;;;;5.02;100.00;95027.53;5115406;28;24452;-71
2022/11/19 06:51:02;;;;;;;1.30;0.95;;;;;;;4.96;100.00;95030.44;5114275;28;24453;-71
2022/11/19 06:53:28;;;;;;;1.27;0.90;;;;;;;4.98;100.00;95028.63;5115086;28;24428;-71
2022/11/19 06:55:56;;;;;;;1.27;1.10;;;;;;;5.04;100.00;95037.72;5115965;28;24456;-72
2022/11/19 06:58:24;;;;;;;4.72;1.00;;;;;;;4.96;100.00;95033.00;5100735;28;24430;-72
2022/11/19 07:00:50;;;;;;;1.90;1.10;;;;;;;5.02;100.00;95031.84;5107563;28;24437;-72
2022/11/19 07:03:17;;;;;;;1.50;0.87;;;;;;;4.93;100.00;95029.75;5102109;28;24465;-72
2022/11/19 07:05:43;;;;;;;2.05;1.08;;;;;;;4.81;100.00;95034.63;5117227;28;24428;-71
2022/11/19 07:08:10;;;;;;;0.98;0.73;;;;;;;4.74;100.00;95035.00;5113333;27;25028;-71
2022/11/19 07:10:37;;;;;;;2.20;1.00;;;;;;;4.74;100.00;95038.41;5117153;28;24437;-72
2022/11/19 07:13:03;;;;;;;5.03;4.30;;;;;;;4.81;100.00;95038.94;5115796;28;24435;-74
2022/11/19 07:15:31;;;;;;;9.13;6.28;;;;;;;4.86;100.00;95039.53;5106532;28;25319;-71
2022/11/19 07:17:57;;;;;;;6.15;4.03;;;;;;;4.75;100.00;95042.66;5118196;27;24998;-72
2022/11/19 07:20:24;;;;;;;3.00;2.28;;;;;;;4.76;100.00;95044.31;5120241;27;24448;-72
2022/11/19 07:22:51;;;;;;;4.03;2.55;;;;;;;4.81;100.00;95044.06;5125407;27;24429;-71
2022/11/19 07:25:17;;;;;;;1.83;1.15;;;;;;;4.84;100.00;95051.59;5122849;27;24472;-71
2022/11/19 07:27:45;;;;;;;7.45;5.50;;;;;;;4.82;100.00;95050.84;5114923;27;24466;-72
2022/11/19 07:30:12;;;;;;;4.75;3.90;;;;;;;4.83;100.00;95055.09;5116941;27;24442;-71
2022/11/19 07:32:40;;;;;;;9.38;5.28;;;;;;;4.80;100.00;95055.22;5109330;27;24465;-72
2022/11/19 07:35:08;;;;;;;8.60;4.10;;;;;;;4.78;100.00;95052.75;5111703;27;25089;-73
2022/11/19 07:37:35;;;;;;;8.02;5.28;;;;;;;4.90;100.00;95056.44;5094158;27;25061;-73
2022/11/19 07:40:02;;;;;;;6.63;3.80;;;;;;;4.94;100.00;95065.63;5113552;27;24445;-71
2022/11/19 07:45:23;;;;;;;1.70;1.15;;;;;;;5.00;100.00;95070.41;5039852;28;24427;-72
2022/11/19 07:47:51;;;;;;;2.15;1.40;;;;;;;5.10;100.00;95074.16;5090433;28;24480;-71
2022/11/19 07:50:18;;;;;;;1.52;1.17;;;;;;;5.16;100.00;95067.91;5109639;27;24442;-72
2022/11/19 07:52:45;;;;;;;1.70;0.90;;;;;;;5.16;100.00;95070.47;5109725;27;24795;-72
2022/11/19 07:55:11;;;;;;;1.27;1.05;;;;;;;5.28;100.00;95066.41;5114256;27;24426;-72
2022/11/19 07:57:38;;;;;;;1.20;1.10;;;;;;;5.30;100.00;95067.13;5110167;27;24846;-71
2022/11/19 08:00:06;;;;;;;3.40;2.90;;;;;;;5.22;100.00;95077.00;5107037;27;24452;-71
2022/11/19 08:02:32;;;;;;;44.47;26.48;;;;;;;5.15;100.00;95081.63;5117466;27;24436;-71
2022/11/19 08:05:00;;;;;;;18.50;11.32;;;;;;;5.20;100.00;95079.66;5120949;27;25346;-70
2022/11/19 08:07:26;;;;;;;11.40;7.70;;;;;;;5.24;100.00;95086.28;5111738;27;24445;-71
2022/11/19 08:09:53;;;;;;;22.50;15.10;;;;;;;5.32;100.00;95084.13;5121007;27;24445;-71
2022/11/19 08:12:19;;;;;;;8.65;7.55;;;;;;;5.38;100.00;95075.28;5100531;28;24990;-70
2022/11/19 08:14:46;;;;;;;3.97;2.65;;;;;;;5.41;100.00;95077.66;5106748;28;24430;-71
2022/11/19 08:19:56;;;;;;;1.58;1.33;;;;;;;5.38;100.00;95087.28;5113082;27;25025;-71
2022/11/19 08:22:24;;;;;;;4.50;3.10;;;;;;;5.40;100.00;95080.31;5111914;27;24437;-71
2022/11/19 08:24:51;;;;;;;4.03;1.60;;;;;;;5.38;100.00;95077.84;5107336;27;24795;-71
2022/11/19 08:27:17;;;;;;;2.70;1.40;;;;;;;5.29;100.00;95084.28;5114628;27;24548;-72
2022/11/19 08:29:44;;;;;;;10.20;4.80;;;;;;;5.30;100.00;95085.13;5120533;27;24433;-70
2022/11/19 08:32:10;;;;;;;2.03;1.75;;;;;;;5.29;100.00;95081.72;5109679;27;24438;-71
2022/11/19 08:34:37;;;;;;;12.55;6.80;;;;;;;5.33;100.00;95090.91;5114889;27;24433;-71
2022/11/19 08:37:04;;;;;;;6.05;4.38;;;;;;;5.34;100.00;95091.78;5121843;27;24437;-72
2022/11/19 08:39:32;;;;;;;5.93;3.65;;;;;;;5.41;100.00;95087.13;5112227;27;24444;-71
2022/11/19 08:44:57;;;;;;;1.50;1.40;;;;;;;5.48;100.00;95086.69;5075212;28;24473;-71
2022/11/19 08:47:24;;;;;;;3.22;2.15;;;;;;;5.56;100.00;95092.28;5080619;28;24453;-71
2022/11/19 08:49:50;;;;;;;3.15;1.10;;;;;;;5.48;100.00;95091.00;5093339;27;24445;-71
2022/11/19 08:52:17;;;;;;;2.00;1.30;;;;;;;5.64;100.00;95088.47;5114571;27;24452;-71
2022/11/19 08:54:44;;;;;;;3.28;1.80;;;;;;;5.64;100.00;95081.59;5103557;27;24439;-72
2022/11/19 08:57:11;;;;;;;1.35;1.00;;;;;;;5.71;100.00;95093.19;5112967;27;24441;-71
2022/11/19 08:59:37;;;;;;;2.40;1.30;;;;;;;5.72;100.00;95094.00;5114148;27;25326;-71
2022/11/19 09:02:04;;;;;;;1.52;0.90;;;;;;;5.76;100.00;95098.06;5111821;27;24471;-72
2022/11/19 09:04:31;;;;;;;1.85;1.27;;;;;;;5.72;100.00;95101.72;5100665;27;24883;-72
2022/11/19 09:06:57;;;;;;;12.67;1.03;;;;;;;5.78;100.00;95106.50;5113904;27;20774;-71
2022/11/19 09:09:24;;;;;;;3.90;2.13;;;;;;;5.75;100.00;95107.53;5113620;27;24533;-72
2022/11/19 09:11:51;;;;;;;1.77;1.03;;;;;;;5.73;100.00;95109.34;5115133;27;24839;-72
2022/11/19 09:14:18;;;;;;;2.30;1.00;;;;;;;5.71;100.00;95113.75;5102091;27;24438;-71
2022/11/19 09:16:44;;;;;;;2.63;1.48;;;;;;;5.79;100.00;95110.75;5113463;27;24800;-71
2022/11/19 09:19:11;;;;;;;1.60;1.50;;;;;;;5.84;100.00;95111.31;5113938;27;24426;-71
2022/11/19 09:21:38;;;;;;;1.70;1.30;;;;;;;5.89;100.00;95114.47;5117945;27;24433;-71
2022/11/19 09:24:05;;;;;;;1.45;1.15;;;;;;;5.91;100.00;95116.97;5104078;28;24440;-71
2022/11/19 09:26:31;;;;;;;1.50;1.30;;;;;;;5.90;100.00;95115.31;5112478;27;24433;-71
2022/11/19 09:28:59;;;;;;;3.35;1.90;;;;;;;5.89;100.00;95117.03;5107728;27;25007;-71
2022/11/19 09:31:26;;;;;;;1.65;1.30;;;;;;;6.00;100.00;95122.44;5098473;28;24444;-71
2022/11/19 09:33:54;;;;;;;3.80;1.42;;;;;;;5.96;100.00;95130.41;5100782;28;24440;-71
2022/11/19 09:36:20;;;;;;;3.60;1.40;;;;;;;6.00;100.00;95127.56;5107915;27;24442;-72
2022/11/19 09:38:48;;;;;;;3.53;1.40;;;;;;;6.10;100.00;95132.22;5098752;28;24444;-72
2022/11/19 09:41:36;;;;;;;2.17;1.48;;;;;;;6.13;100.00;95132.06;5112453;27;24433;-71
2022/11/19 09:44:14;;;;;;;4.70;1.43;;;;;;;6.19;100.00;95135.13;5106458;27;24626;-71
2022/11/19 09:46:48;;;;;;;5.65;1.42;;;;;;;6.14;100.00;95138.84;5103251;27;24815;-72
2022/11/19 09:49:24;;;;;;;2.95;1.52;;;;;;;6.12;100.00;95138.09;5121806;27;24472;-72
2022/11/19 09:51:56;;;;;;;3.40;2.10;;;;;;;6.16;100.00;95140.44;5116835;27;24440;-72
2022/11/19 09:54:22;;;;;;;3.15;1.27;;;;;;;6.06;100.00;95144.41;5104299;27;24987;-72
2022/11/19 09:56:54;;;;;;;3.30;1.40;;;;;;;6.04;100.00;95141.94;5111913;27;24437;-72
2022/11/19 09:59:25;;;;;;;4.25;2.95;;;;;;;6.12;100.00;95145.81;5099746;27;24426;-72
2022/11/19 10:01:52;;;;;;;11.40;7.67;;;;;;;6.18;100.00;95146.31;5117092;27;25001;-71
2022/11/19 10:04:22;;;;;;;7.05;3.38;;;;;;;6.12;100.00;95140.66;5113312;27;24994;-71
2022/11/19 10:06:59;;;;;;;11.33;4.10;;;;;;;6.21;100.00;95146.13;5109339;27;24500;-72
2022/11/19 10:09:41;;;;;;;3.60;1.80;;;;;;;6.18;100.00;95151.44;5100486;28;24445;-72
2022/11/19 10:12:28;;;;;;;1.40;0.80;;;;;;;6.18;100.00;95153.19;5107550;27;24441;-73
2022/11/19 10:15:11;;;;;;;2.30;1.08;;;;;;;6.15;100.00;95146.47;5096941;28;24437;-72
2022/11/19 10:17:48;;;;;;;2.38;1.10;;;;;;;6.22;100.00;95157.25;5108658;28;24799;-72
2022/11/19 10:20:39;;;;;;;2.97;1.25;;;;;;;6.18;100.00;95151.44;5111434;28;24456;-72
2022/11/19 10:23:16;;;;;;;5.38;1.05;;;;;;;6.19;100.00;95145.41;5106600;28;24816;-72
2022/11/19 10:25:45;;;;;;;2.17;1.30;;;;;;;6.26;100.00;95141.56;5123322;27;24839;-72
2022/11/19 10:28:14;;;;;;;3.42;0.98;;;;;;;6.25;100.00;95147.63;5109830;28;24457;-72
2022/11/19 10:30:48;;;;;;;3.20;1.70;;;;;;;6.30;100.00;95150.78;5109243;28;25016;-72
2022/11/19 10:33:21;;;;;;;1.98;0.93;;;;;;;6.35;100.00;95144.56;5111788;28;24843;-72
2022/11/19 10:35:51;;;;;;;3.60;1.55;;;;;;;6.36;100.00;95146.19;5123278;28;24445;-72
2022/11/19 10:38:22;;;;;;;1.67;1.13;;;;;;;6.38;100.00;95147.78;5110260;28;24438;-72
2022/11/19 10:40:53;;;;;;;2.05;1.10;;;;;;;6.41;100.00;95159.63;5114550;28;24447;-72
2022/11/19 10:43:27;;;;;;;4.05;1.65;;;;;;;6.35;100.00;95152.28;5103341;28;20774;-72
2022/11/19 10:45:58;;;;;;;3.25;1.20;;;;;;;6.29;100.00;95150.84;5110333;28;21108;-72
2022/11/19 10:48:35;;;;;;;2.72;1.10;;;;;;;6.23;100.00;95146.91;5119943;28;24464;-71
2022/11/19 10:51:10;;;;;;;2.33;0.82;;;;;;;6.28;100.00;95149.22;5120318;28;24974;-71
2022/11/19 10:53:39;;;;;;;1.73;1.20;;;;;;;6.20;100.00;95147.06;5121227;27;24429;-71
2022/11/19 10:56:12;;;;;;;2.47;1.00;;;;;;;6.28;100.00;95144.06;5123426;27;24436;-71
2022/11/19 10:58:43;;;;;;;4.35;0.90;;;;;;;6.16;100.00;95137.88;5125733;27;24985;-71
2022/11/19 11:01:16;;;;;;;1.90;0.83;;;;;;;6.18;100.00;95140.34;5127054;27;24441;-71
2022/11/19 11:03:48;;;;;;;2.60;1.20;;;;;;;6.22;100.00;95132.38;5118507;27;24429;-72
2022/11/19 11:06:14;;;;;;;2.97;1.10;;;;;;;6.28;100.00;95137.16;5121991;27;24456;-72
2022/11/19 11:08:48;;;;;;;5.43;1.20;;;;;;;6.33;100.00;95136.09;5118851;27;24456;-71
2022/11/19 11:14:50;;;;;;;1.30;0.90;;;;;;;6.40;100.00;95133.06;5114774;27;24487;-72
2022/11/19 11:16:59;;;;;;;2.72;1.05;;;;;;;6.46;100.00;95130.16;5119888;27;24440;-71
2022/11/19 11:19:26;;;;;;;1.65;1.00;;;;;;;6.49;100.00;95121.47;5113378;27;24997;-72
2022/11/19 11:21:54;;;;;;;1.95;0.90;;;;;;;6.58;100.00;95120.09;5114956;27;24441;-72
2022/11/19 11:24:21;;;;;;;2.20;1.17;;;;;;;6.54;100.00;95115.13;5120916;27;24433;-72
2022/11/19 11:26:47;;;;;;;1.50;0.70;;;;;;;6.58;100.00;95112.38;5106717;27;24523;-72
2022/11/19 11:29:27;;;;;;;1.27;0.87;;;;;;;6.59;100.00;95114.84;5118829;27;24513;-72
2022/11/19 11:31:53;;;;;;;3.05;0.90;;;;;;;6.51;100.00;95115.28;5108147;27;24442;-71
2022/11/19 11:34:32;;;;;;;2.72;0.88;;;;;;;6.46;100.00;95124.19;5120867;27;25002;-72
2022/11/19 11:37:00;;;;;;;3.97;1.00;;;;;;;6.51;100.00;95115.28;5108948;27;24433;-72
2022/11/19 11:39:30;;;;;;;4.20;1.07;;;;;;;6.44;100.00;95116.56;5119837;27;24458;-72
2022/11/19 11:41:58;;;;;;;2.50;0.83;;;;;;;6.48;100.00;95115.47;5102533;27;21361;-72
2022/11/19 11:44:27;;;;;;;2.35;0.90;;;;;;;6.50;100.00;95129.06;5122305;27;20764;-72
2022/11/19 11:46:56;;;;;;;1.90;0.90;;;;;;;6.48;100.00;95118.03;5107936;27;20803;-71
2022/11/19 11:49:35;;;;;;;5.30;1.55;;;;;;;6.55;100.00;95121.09;5115626;27;24460;-71
2022/11/19 11:52:18;;;;;;;2.22;0.85;;;;;;;6.54;100.00;95116.88;5104745;27;20810;-71
2022/11/19 11:54:57;;;;;;;2.05;1.27;;;;;;;6.57;100.00;95118.44;5110221;28;25017;-71
2022/11/19 11:57:25;;;;;;;2.40;1.00;;;;;;;6.52;100.00;95123.84;5107575;27;24449;-71
2022/11/19 11:59:52;;;;;;;2.50;0.88;;;;;;;6.66;100.00;95121.28;5118389;27;24445;-72
2022/11/19 12:02:22;;;;;;;1.08;0.73;;;;;;;6.52;100.00;95127.22;5107429;27;24440;-71
2022/11/19 12:04:51;;;;;;;5.05;0.80;;;;;;;6.53;100.00;95117.78;5112838;27;24450;-73
2022/11/19 12:07:29;;;;;;;1.10;0.80;;;;;;;6.53;100.00;95122.94;5112944;27;25043;-71